createdAt,value
2018-07-22T00:00:35.980Z,50.87
2018-07-22T00:03:04.447Z,50.81
2018-07-22T00:05:32.981Z,51.04
2018-07-22T00:08:01.826Z,51.04
2018-07-22T00:10:31.276Z,51.40
2018-07-22T00:13:00.736Z,52.19
2018-07-22T00:15:29.610Z,52.92
2018-07-22T00:17:58.441Z,53.53
2018-07-22T00:20:27.161Z,53.38
2018-07-22T00:22:55.977Z,53.72
2018-07-22T00:25:24.452Z,54.29
2018-07-22T00:27:53.106Z,54.38
2018-07-22T00:30:22.341Z,54.89
2018-07-22T00:32:51.214Z,55.50
2018-07-22T00:35:20.281Z,55.65
2018-07-22T00:37:49.321Z,56.19
2018-07-22T00:40:18.001Z,56.07
2018-07-22T00:42:46.848Z,56.61
2018-07-22T00:45:15.684Z,56.52
2018-07-22T00:47:44.205Z,56.89
2018-07-22T00:50:13.578Z,57.42
2018-07-22T00:52:42.963Z,57.42
2018-07-22T00:55:11.437Z,57.87
2018-07-22T00:57:39.930Z,58.13
2018-07-22T01:00:10.090Z,58.19
2018-07-22T01:02:38.596Z,58.51
2018-07-22T01:05:07.316Z,58.52
2018-07-22T01:07:36.614Z,58.85
2018-07-22T01:10:05.417Z,59.02
2018-07-22T01:12:34.157Z,59.23
2018-07-22T01:15:03.063Z,59.39
2018-07-22T01:17:32.113Z,59.73
2018-07-22T01:20:00.830Z,60.37
2018-07-22T01:22:29.654Z,60.40
2018-07-22T01:24:58.455Z,60.62
2018-07-22T01:27:27.189Z,60.75
2018-07-22T01:29:56.867Z,60.87
2018-07-22T01:32:25.320Z,61.04
2018-07-22T01:34:54.229Z,61.19
2018-07-22T01:37:23.557Z,61.48
2018-07-22T01:39:51.993Z,61.69
2018-07-22T01:42:20.552Z,61.63
2018-07-22T01:44:49.654Z,62.04
2018-07-22T01:47:18.167Z,62.06
2018-07-22T01:49:47.267Z,62.13
2018-07-22T01:52:16.220Z,62.38
2018-07-22T01:54:45.208Z,62.29
2018-07-22T01:57:13.669Z,62.72
2018-07-22T01:59:43.309Z,62.97
2018-07-22T02:02:12.138Z,62.78
2018-07-22T02:04:40.589Z,63.24
2018-07-22T02:07:09.459Z,63.72
2018-07-22T02:09:38.459Z,63.73
2018-07-22T02:12:06.932Z,64.02
2018-07-22T02:14:36.119Z,64.07
2018-07-22T02:17:04.637Z,63.98
2018-07-22T02:19:33.752Z,64.19
2018-07-22T02:22:02.390Z,64.53
2018-07-22T02:24:30.853Z,64.49
2018-07-22T02:26:59.649Z,64.68
2018-07-22T02:29:28.849Z,64.78
2018-07-22T02:31:57.325Z,65.05
2018-07-22T02:34:25.820Z,64.88
2018-07-22T02:36:54.914Z,65.30
2018-07-22T02:39:23.833Z,65.39
2018-07-22T02:41:52.321Z,65.21
2018-07-22T02:44:21.435Z,64.99
2018-07-22T02:46:49.907Z,65.24
2018-07-22T02:49:18.401Z,65.23
2018-07-22T02:51:47.234Z,64.89
2018-07-22T02:54:15.785Z,65.16
2018-07-22T02:56:44.249Z,65.44
2018-07-22T02:59:13.005Z,65.14
2018-07-22T03:01:41.792Z,65.12
2018-07-22T03:04:10.508Z,65.15
2018-07-22T03:06:39.452Z,65.28
2018-07-22T03:09:09.180Z,65.02
2018-07-22T03:11:38.066Z,64.94
2018-07-22T03:14:07.001Z,65.24
2018-07-22T03:16:35.531Z,65.60
2018-07-22T03:19:04.590Z,65.81
2018-07-22T03:21:33.356Z,65.60
2018-07-22T03:24:01.962Z,65.97
2018-07-22T03:26:31.137Z,66.03
2018-07-22T03:28:59.969Z,65.43
2018-07-22T03:31:28.417Z,65.78
2018-07-22T03:33:56.875Z,66.17
2018-07-22T03:36:25.725Z,66.46
2018-07-22T03:38:54.490Z,66.52
2018-07-22T03:41:23.661Z,66.46
2018-07-22T03:43:53.009Z,66.21
2018-07-22T03:46:21.857Z,66.80
2018-07-22T03:48:50.314Z,66.88
2018-07-22T03:51:19.142Z,66.41
2018-07-22T03:53:47.869Z,66.71
2018-07-22T03:56:16.627Z,66.90
2018-07-22T03:58:45.726Z,67.14
2018-07-22T04:01:14.297Z,66.74
2018-07-22T04:03:42.959Z,66.56
2018-07-22T04:06:11.792Z,67.03
2018-07-22T04:08:40.617Z,66.80
2018-07-22T04:11:09.180Z,66.66
2018-07-22T04:13:37.935Z,66.78
2018-07-22T04:16:06.710Z,66.69
2018-07-22T04:18:39.817Z,66.77
2018-07-22T04:21:08.522Z,66.80
2018-07-22T04:23:37.321Z,67.09
2018-07-22T04:26:05.789Z,66.92
2018-07-22T04:28:34.576Z,67.00
2018-07-22T04:31:03.457Z,66.87
2018-07-22T04:33:31.921Z,67.03
2018-07-22T04:36:00.579Z,67.36
2018-07-22T04:38:29.025Z,67.03
2018-07-22T04:40:57.540Z,67.13
2018-07-22T04:43:26.941Z,67.11
2018-07-22T04:45:55.396Z,67.05
2018-07-22T04:48:24.750Z,67.08
2018-07-22T04:50:54.370Z,66.58
2018-07-22T04:53:23.384Z,66.32
2018-07-22T04:55:52.205Z,66.31
2018-07-22T04:58:21.038Z,66.42
2018-07-22T05:00:50.353Z,66.12
2018-07-22T05:03:19.094Z,66.47
2018-07-22T05:05:48.042Z,66.30
2018-07-22T05:08:16.748Z,66.45
2018-07-22T05:10:45.482Z,66.35
2018-07-22T05:13:14.393Z,66.45
2018-07-22T05:15:42.827Z,66.35
2018-07-22T05:18:11.507Z,66.58
2018-07-22T05:20:40.737Z,66.25
2018-07-22T05:23:09.331Z,66.23
2018-07-22T05:25:38.137Z,65.94
2018-07-22T05:28:06.842Z,66.23
2018-07-22T05:30:35.346Z,65.89
2018-07-22T05:33:03.794Z,65.77
2018-07-22T05:35:32.765Z,65.39
2018-07-22T05:38:01.229Z,65.27
2018-07-22T05:40:29.777Z,65.15
2018-07-22T05:42:58.815Z,65.19
2018-07-22T05:45:27.814Z,65.08
2018-07-22T05:47:56.361Z,65.06
2018-07-22T05:50:25.165Z,64.52
2018-07-22T05:52:54.256Z,65.05
2018-07-22T05:55:22.877Z,64.91
2018-07-22T05:57:52.129Z,64.60
2018-07-22T06:00:20.665Z,64.13
2018-07-22T06:02:49.413Z,63.89
2018-07-22T06:05:18.085Z,63.44
2018-07-22T06:07:46.549Z,63.71
2018-07-22T06:10:15.424Z,63.00
2018-07-22T06:12:43.967Z,62.96
2018-07-22T06:15:12.409Z,62.63
2018-07-22T06:17:41.549Z,62.11
2018-07-22T06:20:10.354Z,62.54
2018-07-22T06:22:39.048Z,62.65
2018-07-22T06:25:08.558Z,62.77
2018-07-22T06:27:37.705Z,62.39
2018-07-22T06:30:06.733Z,62.59
2018-07-22T06:32:35.527Z,61.78
2018-07-22T06:35:05.188Z,62.04
2018-07-22T06:37:34.000Z,61.74
2018-07-22T06:40:02.741Z,61.46
2018-07-22T06:42:31.631Z,61.49
2018-07-22T06:45:00.107Z,61.30
2018-07-22T06:47:29.193Z,61.03
2018-07-22T06:49:58.161Z,61.17
2018-07-22T06:52:27.037Z,61.17
2018-07-22T06:54:55.536Z,60.97
2018-07-22T06:57:24.225Z,60.71
2018-07-22T06:59:53.364Z,60.73
2018-07-22T07:02:23.097Z,60.84
2018-07-22T07:04:51.914Z,60.62
2018-07-22T07:07:20.700Z,59.86
2018-07-22T07:09:49.433Z,60.19
2018-07-22T07:12:17.885Z,60.25
2018-07-22T07:14:46.768Z,60.65
2018-07-22T07:17:15.250Z,60.75
2018-07-22T07:19:43.718Z,60.38
2018-07-22T07:22:12.513Z,59.70
2018-07-22T07:24:41.171Z,59.97
2018-07-22T07:27:10.830Z,60.24
2018-07-22T07:29:39.667Z,60.11
2018-07-22T07:32:08.225Z,59.52
2018-07-22T07:34:37.117Z,59.32
2018-07-22T07:37:06.772Z,59.50
2018-07-22T07:39:35.518Z,59.69
2018-07-22T07:42:04.330Z,58.65
2018-07-22T07:44:33.393Z,57.01
2018-07-22T07:47:01.909Z,56.01
2018-07-22T07:49:30.666Z,55.52
2018-07-22T07:51:59.537Z,55.51
2018-07-22T07:54:28.055Z,54.54
2018-07-22T07:56:56.724Z,53.64
2018-07-22T07:59:25.269Z,52.02
2018-07-22T08:01:53.980Z,51.15
2018-07-22T08:04:22.854Z,51.50
2018-07-22T08:06:51.729Z,51.32
2018-07-22T08:09:20.349Z,50.62
2018-07-22T08:11:48.874Z,50.66
2018-07-22T08:14:17.276Z,50.19
2018-07-22T08:16:45.805Z,47.73
2018-07-22T08:19:14.639Z,48.39
2018-07-22T08:21:43.228Z,47.74
2018-07-22T08:24:11.777Z,47.82
2018-07-22T08:26:40.429Z,47.26
2018-07-22T08:29:31.381Z,46.42
2018-07-22T08:32:00.550Z,46.76
2018-07-22T08:34:29.136Z,45.79
2018-07-22T08:36:57.677Z,45.95
2018-07-22T08:39:27.801Z,45.89
2018-07-22T08:41:57.090Z,45.93
2018-07-22T08:44:25.650Z,45.79
2018-07-22T08:46:55.010Z,45.36
2018-07-22T08:49:24.582Z,45.04
2018-07-22T08:51:53.257Z,45.37
2018-07-22T08:54:21.733Z,45.38
2018-07-22T08:56:50.209Z,44.63
2018-07-22T08:59:18.670Z,43.27
2018-07-22T09:01:48.357Z,43.88
2018-07-22T09:04:17.169Z,44.68
2018-07-22T09:06:45.916Z,44.98
2018-07-22T09:09:14.722Z,45.47
2018-07-22T09:11:43.343Z,45.66
2018-07-22T09:14:11.881Z,45.01
2018-07-22T09:16:40.775Z,44.89
2018-07-22T09:19:09.602Z,45.43
2018-07-22T09:21:38.817Z,43.58
2018-07-22T09:24:07.839Z,43.62
2018-07-22T09:26:36.256Z,43.74
2018-07-22T09:29:07.112Z,42.52
2018-07-22T09:31:35.618Z,41.28
2018-07-22T09:34:04.182Z,41.60
2018-07-22T09:36:32.868Z,41.81
2018-07-22T09:39:01.620Z,42.79
2018-07-22T09:41:30.221Z,41.83
2018-07-22T09:43:58.945Z,41.67
2018-07-22T09:46:27.591Z,42.55
2018-07-22T09:48:56.026Z,42.82
2018-07-22T09:51:25.480Z,42.82
2018-07-22T09:53:55.370Z,42.93
2018-07-22T09:56:24.521Z,42.83
2018-07-22T09:58:52.989Z,42.65
2018-07-22T10:01:21.446Z,42.52
2018-07-22T10:03:50.229Z,42.63
2018-07-22T10:06:18.897Z,42.39
2018-07-22T10:08:47.398Z,43.15
2018-07-22T10:11:16.094Z,42.79
2018-07-22T10:13:44.692Z,43.50
2018-07-22T10:16:13.376Z,41.18
2018-07-22T10:18:42.762Z,39.66
2018-07-22T10:21:11.650Z,40.65
2018-07-22T10:23:40.495Z,39.83
2018-07-22T10:26:09.818Z,39.51
2018-07-22T10:28:38.687Z,39.62
2018-07-22T10:31:07.224Z,39.44
2018-07-22T10:33:35.749Z,37.87
2018-07-22T10:36:04.733Z,38.17
2018-07-22T10:38:33.372Z,37.54
2018-07-22T10:41:03.050Z,36.78
2018-07-22T10:43:32.090Z,36.70
2018-07-22T10:46:01.024Z,36.00
2018-07-22T10:48:30.106Z,37.38
2018-07-22T10:50:58.724Z,35.50
2018-07-22T10:53:27.361Z,36.09
2018-07-22T10:55:56.141Z,35.85
2018-07-22T10:58:24.762Z,35.88
2018-07-22T11:00:54.601Z,35.75
2018-07-22T11:03:23.523Z,36.47
2018-07-22T11:05:52.031Z,36.48
2018-07-22T11:08:20.922Z,36.44
2018-07-22T11:10:50.278Z,36.67
2018-07-22T11:13:19.810Z,36.55
2018-07-22T11:15:48.566Z,37.29
2018-07-22T11:18:17.413Z,37.50
2018-07-22T11:20:45.973Z,37.46
2018-07-22T11:23:14.807Z,36.29
2018-07-22T11:25:43.661Z,36.06
2018-07-22T11:28:12.714Z,35.78
2018-07-22T11:30:42.462Z,36.17
2018-07-22T11:33:11.276Z,36.69
2018-07-22T11:35:39.770Z,37.51
2018-07-22T11:38:08.343Z,37.11
2018-07-22T11:40:36.794Z,37.68
2018-07-22T11:43:05.284Z,37.68
2018-07-22T11:45:34.325Z,38.24
2018-07-22T11:48:03.008Z,38.78
2018-07-22T11:50:31.528Z,38.62
2018-07-22T11:52:59.982Z,36.81
2018-07-22T11:55:28.867Z,36.49
2018-07-22T11:57:57.563Z,35.93
2018-07-22T12:00:26.303Z,35.61
2018-07-22T12:02:55.399Z,36.02
2018-07-22T12:05:24.672Z,35.35
2018-07-22T12:07:53.574Z,35.51
2018-07-22T12:10:22.400Z,34.64
2018-07-22T12:12:50.897Z,36.02
2018-07-22T12:15:19.963Z,35.44
2018-07-22T12:17:48.774Z,35.24
2018-07-22T12:20:17.469Z,35.46
2018-07-22T12:22:46.133Z,34.66
2018-07-22T12:25:14.672Z,34.07
2018-07-22T12:27:43.505Z,34.32
2018-07-22T12:30:12.470Z,34.63
2018-07-22T12:32:40.923Z,34.88
2018-07-22T12:35:10.514Z,35.33
2018-07-22T12:37:40.046Z,34.52
2018-07-22T12:40:08.478Z,35.60
2018-07-22T12:42:36.967Z,34.41
2018-07-22T12:45:06.636Z,33.29
2018-07-22T12:47:35.461Z,33.94
2018-07-22T12:50:04.074Z,32.96
2018-07-22T12:52:32.812Z,33.47
2018-07-22T12:55:01.268Z,33.09
2018-07-22T12:57:29.776Z,32.68
2018-07-22T12:59:59.058Z,33.29
2018-07-22T13:02:27.558Z,32.76
2018-07-22T13:04:56.029Z,32.66
2018-07-22T13:07:24.793Z,31.82
2018-07-22T13:09:53.565Z,31.98
2018-07-22T13:12:22.125Z,32.21
2018-07-22T13:14:50.981Z,32.11
2018-07-22T13:17:20.443Z,30.20
2018-07-22T13:19:48.944Z,31.17
2018-07-22T13:22:18.417Z,31.24
2018-07-22T13:24:47.278Z,31.66
2018-07-22T13:27:16.001Z,31.45
2018-07-22T13:29:45.022Z,30.48
2018-07-22T13:32:13.619Z,29.52
2018-07-22T13:34:42.681Z,29.85
2018-07-22T13:37:11.310Z,29.57
2018-07-22T13:39:39.998Z,28.76
2018-07-22T13:42:09.234Z,28.94
2018-07-22T13:44:38.599Z,28.23
2018-07-22T13:47:07.938Z,27.27
2018-07-22T13:49:36.402Z,28.34
2018-07-22T13:52:05.081Z,28.55
2018-07-22T13:54:33.946Z,28.79
2018-07-22T13:57:02.675Z,27.37
2018-07-22T13:59:31.569Z,25.88
2018-07-22T14:02:00.129Z,26.57
2018-07-22T14:04:28.857Z,27.52
2018-07-22T14:06:57.300Z,27.23
2018-07-22T14:09:25.797Z,27.28
2018-07-22T14:11:54.536Z,27.24
2018-07-22T14:14:23.084Z,26.72
2018-07-22T14:16:51.549Z,26.01
2018-07-22T14:19:20.557Z,25.98
2018-07-22T14:21:49.006Z,24.58
2018-07-22T14:24:17.816Z,25.20
2018-07-22T14:26:46.609Z,24.99
2018-07-22T14:29:15.077Z,25.76
2018-07-22T14:31:44.029Z,25.77
2018-07-22T14:34:12.987Z,26.01
2018-07-22T14:36:41.776Z,26.09
2018-07-22T14:39:12.429Z,25.21
2018-07-22T14:41:41.357Z,24.72
2018-07-22T14:44:09.857Z,24.45
2018-07-22T14:46:38.534Z,24.41
2018-07-22T14:49:07.177Z,24.13
2018-07-22T14:51:35.619Z,24.58
2018-07-22T14:54:04.423Z,24.19
2018-07-22T14:56:33.211Z,23.99
2018-07-22T14:59:01.953Z,23.45
2018-07-22T15:01:30.396Z,24.01
2018-07-22T15:03:59.717Z,24.86
2018-07-22T15:06:28.460Z,23.92
2018-07-22T15:08:56.965Z,23.72
2018-07-22T15:11:25.849Z,25.24
2018-07-22T15:13:55.491Z,25.41
2018-07-22T15:16:24.848Z,25.57
2018-07-22T15:18:53.557Z,24.69
2018-07-22T15:21:21.993Z,24.50
2018-07-22T15:23:50.648Z,24.67
2018-07-22T15:26:19.122Z,24.42
2018-07-22T15:28:48.144Z,25.34
2018-07-22T15:31:16.769Z,25.11
2018-07-22T15:33:45.217Z,25.99
2018-07-22T15:36:13.997Z,26.30
2018-07-22T15:38:42.765Z,25.68
2018-07-22T15:41:11.213Z,24.20
2018-07-22T15:43:39.665Z,24.89
2018-07-22T15:46:08.569Z,24.25
2018-07-22T15:48:37.731Z,24.83
2018-07-22T15:51:07.050Z,25.01
2018-07-22T15:53:35.550Z,25.99
2018-07-22T15:56:04.636Z,26.38
2018-07-22T15:58:33.109Z,25.90
2018-07-22T16:01:01.657Z,27.24
2018-07-22T16:03:30.425Z,27.41
2018-07-22T16:05:59.305Z,26.87
2018-07-22T16:08:27.798Z,26.58
2018-07-22T16:10:56.590Z,27.50
2018-07-22T16:13:25.412Z,27.29
2018-07-22T16:15:54.773Z,28.09
2018-07-22T16:18:23.525Z,28.12
2018-07-22T16:20:52.483Z,27.20
2018-07-22T16:23:21.405Z,27.31
2018-07-22T16:25:49.933Z,26.51
2018-07-22T16:28:18.751Z,26.78
2018-07-22T16:30:47.465Z,27.94
2018-07-22T16:33:15.955Z,28.16
2018-07-22T16:35:45.094Z,27.90
2018-07-22T16:38:13.666Z,29.00
2018-07-22T16:40:42.333Z,28.30
2018-07-22T16:43:10.761Z,27.49
2018-07-22T16:45:39.417Z,26.55
2018-07-22T16:48:08.061Z,25.93
2018-07-22T16:50:36.927Z,25.36
2018-07-22T16:53:05.629Z,25.10
2018-07-22T16:55:34.506Z,24.56
2018-07-22T16:58:03.006Z,24.74
2018-07-22T17:00:31.550Z,24.36
2018-07-22T17:02:59.981Z,24.89
2018-07-22T17:05:28.457Z,24.85
2018-07-22T17:07:57.049Z,25.43
2018-07-22T17:10:26.836Z,25.15
2018-07-22T17:12:55.528Z,26.33
2018-07-22T17:15:24.000Z,27.10
2018-07-22T17:17:53.513Z,27.55
2018-07-22T17:20:22.520Z,28.92
2018-07-22T17:22:51.563Z,29.06
2018-07-22T17:25:20.005Z,29.83
2018-07-22T17:27:49.217Z,30.49
2018-07-22T17:30:17.740Z,30.66
2018-07-22T17:32:46.197Z,31.30
2018-07-22T17:35:15.457Z,31.35
2018-07-22T17:37:43.981Z,31.67
2018-07-22T17:40:12.441Z,32.15
2018-07-22T17:42:41.168Z,32.06
2018-07-22T17:45:10.012Z,33.03
2018-07-22T17:47:39.485Z,32.40
2018-07-22T17:50:08.134Z,33.17
2018-07-22T17:52:36.603Z,33.15
2018-07-22T17:55:05.373Z,34.27
2018-07-22T17:57:34.111Z,33.56
2018-07-22T18:00:02.776Z,33.63
2018-07-22T18:02:31.213Z,33.80
2018-07-22T18:04:59.959Z,33.87
2018-07-22T18:07:28.809Z,34.11
2018-07-22T18:09:57.571Z,34.48
2018-07-22T18:12:26.597Z,35.04
2018-07-22T18:14:55.482Z,35.15
2018-07-22T18:17:24.389Z,35.74
2018-07-22T18:19:52.865Z,35.96
2018-07-22T18:22:21.373Z,35.85
2018-07-22T18:24:50.197Z,35.45
2018-07-22T18:27:19.026Z,35.40
2018-07-22T18:29:47.549Z,35.91
2018-07-22T18:32:16.237Z,35.62
2018-07-22T18:34:45.093Z,36.20
2018-07-22T18:37:14.086Z,36.19
2018-07-22T18:39:42.474Z,36.66
2018-07-22T18:42:11.339Z,36.62
2018-07-22T18:44:39.811Z,36.66
2018-07-22T18:47:08.293Z,37.25
2018-07-22T18:49:37.374Z,37.71
2018-07-22T18:52:06.137Z,37.22
2018-07-22T18:54:34.566Z,37.19
2018-07-22T18:57:03.420Z,37.14
2018-07-22T18:59:31.869Z,37.53
2018-07-22T19:02:00.449Z,38.18
2018-07-22T19:04:29.317Z,38.50
2018-07-22T19:06:58.261Z,38.79
2018-07-22T19:09:26.770Z,38.61
2018-07-22T19:11:56.242Z,38.73
2018-07-22T19:14:25.117Z,38.42
2018-07-22T19:16:53.742Z,38.86
2018-07-22T19:19:22.437Z,38.53
2018-07-22T19:21:51.707Z,38.76
2018-07-22T19:24:20.816Z,39.67
2018-07-22T19:26:49.425Z,40.01
2018-07-22T19:29:18.770Z,39.69
2018-07-22T19:31:47.219Z,40.06
2018-07-22T19:34:16.013Z,40.37
2018-07-22T19:36:44.901Z,40.18
2018-07-22T19:39:14.117Z,40.20
2018-07-22T19:41:42.800Z,40.00
2018-07-22T19:44:11.301Z,40.45
2018-07-22T19:46:39.768Z,40.50
2018-07-22T19:49:08.226Z,40.12
2018-07-22T19:51:37.245Z,40.21
2018-07-22T19:54:06.000Z,40.34
2018-07-22T19:56:34.595Z,40.95
2018-07-22T19:59:03.212Z,41.14
2018-07-22T20:01:35.365Z,41.16
2018-07-22T20:04:04.697Z,41.16
2018-07-22T20:06:33.205Z,41.21
2018-07-22T20:09:01.645Z,41.14
2018-07-22T20:11:30.613Z,41.02
2018-07-22T20:13:59.278Z,41.34
2018-07-22T20:16:27.791Z,41.00
2018-07-22T20:18:56.661Z,41.58
2018-07-22T20:21:25.877Z,41.32
2018-07-22T20:23:54.932Z,41.66
2018-07-22T20:26:23.901Z,41.75
2018-07-22T20:28:52.741Z,42.39
2018-07-22T20:31:21.191Z,42.08
2018-07-22T20:33:49.718Z,42.47
2018-07-22T20:36:18.190Z,42.47
2018-07-22T20:38:47.137Z,42.71
2018-07-22T20:41:16.210Z,43.26
2018-07-22T20:43:45.162Z,43.18
2018-07-22T20:46:13.942Z,43.98
2018-07-22T20:48:42.557Z,44.24
2018-07-22T20:51:11.108Z,43.77
2018-07-22T20:53:39.911Z,44.50
2018-07-22T20:56:08.405Z,45.10
2018-07-22T20:58:36.967Z,45.08
2018-07-22T21:01:05.708Z,45.34
2018-07-22T21:03:34.584Z,45.14
2018-07-22T21:06:03.035Z,45.46
2018-07-22T21:08:32.385Z,46.15
2018-07-22T21:11:00.857Z,46.47
2018-07-22T21:13:29.275Z,46.43
2018-07-22T21:15:58.513Z,46.58
2018-07-22T21:18:27.582Z,46.64
2018-07-22T21:20:57.891Z,47.12
2018-07-22T21:23:26.584Z,47.65
2018-07-22T21:25:56.321Z,48.27
2018-07-22T21:28:24.759Z,47.94
2018-07-22T21:30:53.434Z,47.92
2018-07-22T21:33:21.961Z,48.36
2018-07-22T21:35:50.920Z,48.19
2018-07-22T21:38:19.369Z,48.08
2018-07-22T21:40:47.829Z,48.50
2018-07-22T21:43:16.715Z,47.87
2018-07-22T21:45:45.188Z,47.81
2018-07-22T21:48:13.932Z,47.62
2018-07-22T21:50:43.465Z,47.54
2018-07-22T21:53:12.046Z,47.51
2018-07-22T21:55:40.547Z,47.44
2018-07-22T21:58:09.104Z,47.55
2018-07-22T22:00:43.221Z,48.19
2018-07-22T22:03:11.699Z,48.13
2018-07-22T22:05:40.514Z,48.33
2018-07-22T22:08:09.223Z,47.80
2018-07-22T22:10:38.170Z,48.20
2018-07-22T22:13:06.957Z,48.32
2018-07-22T22:15:35.430Z,48.13
2018-07-22T22:18:05.521Z,48.43
2018-07-22T22:20:34.261Z,48.27
2018-07-22T22:23:02.745Z,48.29
2018-07-22T22:25:31.565Z,48.88
2018-07-22T22:28:00.557Z,49.21
2018-07-22T22:30:29.417Z,48.87
2018-07-22T22:32:57.885Z,49.29
2018-07-22T22:35:26.513Z,49.60
2018-07-22T22:37:55.305Z,49.70
2018-07-22T22:40:24.281Z,49.81
2018-07-22T22:42:52.803Z,49.67
2018-07-22T22:45:21.549Z,49.47
2018-07-22T22:47:50.337Z,50.27
2018-07-22T22:50:18.848Z,50.10
2018-07-22T22:52:47.542Z,50.32
2018-07-22T22:55:16.393Z,51.19
2018-07-22T22:57:56.001Z,51.58
2018-07-22T23:00:24.885Z,51.49
2018-07-22T23:02:53.437Z,52.06
2018-07-22T23:05:21.917Z,52.51
2018-07-22T23:07:51.195Z,52.37
2018-07-22T23:10:19.713Z,52.98
2018-07-22T23:12:48.176Z,53.18
2018-07-22T23:15:16.938Z,53.32
2018-07-22T23:17:45.765Z,53.17
2018-07-22T23:20:14.571Z,53.44
2018-07-22T23:22:43.309Z,53.57
2018-07-22T23:25:12.107Z,53.98
2018-07-22T23:27:41.677Z,53.75
2018-07-22T23:30:10.677Z,54.07
2018-07-22T23:32:39.392Z,53.98
2018-07-22T23:35:08.257Z,54.25
2018-07-22T23:37:36.766Z,54.99
2018-07-22T23:40:05.509Z,54.90
2018-07-22T23:42:34.442Z,55.04
2018-07-22T23:45:03.332Z,55.15
2018-07-22T23:47:32.225Z,55.73
2018-07-22T23:50:01.143Z,55.55
2018-07-22T23:52:30.095Z,56.22
2018-07-22T23:54:58.534Z,56.33
2018-07-22T23:57:27.281Z,56.32
2018-07-22T23:59:56.137Z,56.40
